Time;durP1;ratioP1;P1;durP2;ratioP2;P2;SDS_P1;SDS_P2;PMS_P1;PMS_P2;Temp;Humidity;BMP_temperature;BMP_pressure;BME280_temperature;BME280_humidity;BME280_pressure;Samples;Min_cycle;Max_cycle;Signal;HPM_P1;HPM_P2
2021/06/15 00:00:45;;;;;;;8.53;3.77;;;15.50;94.70;;;;;;5043420;28;20194;-56
2021/06/15 00:03:11;;;;;;;7.20;3.60;;;15.50;94.70;;;;;;5045765;28;20250;-54
2021/06/15 00:05:37;;;;;;;4.37;3.67;;;15.40;94.90;;;;;;5044876;28;20608;-56
2021/06/15 00:08:03;;;;;;;6.47;4.00;;;15.40;95.10;;;;;;5043137;28;20782;-56
2021/06/15 00:10:29;;;;;;;5.93;4.17;;;15.40;95.20;;;;;;5035923;28;20644;-56
2021/06/15 00:12:56;;;;;;;4.47;4.03;;;15.30;95.40;;;;;;5046004;28;20483;-54
2021/06/15 00:15:22;;;;;;;10.33;3.80;;;15.30;95.80;;;;;;5025844;28;20558;-57
2021/06/15 00:17:50;;;;;;;4.77;3.67;;;15.20;95.80;;;;;;5047035;28;20457;-57
2021/06/15 00:20:16;;;;;;;7.20;4.77;;;15.20;96.00;;;;;;5042818;28;20429;-57
2021/06/15 00:22:43;;;;;;;9.33;4.20;;;15.10;96.30;;;;;;5047038;28;21202;-56
2021/06/15 00:25:10;;;;;;;5.40;4.40;;;15.10;96.20;;;;;;5040531;28;20440;-55
2021/06/15 00:27:38;;;;;;;6.80;4.00;;;15.10;96.50;;;;;;5047521;28;20417;-55
2021/06/15 00:30:05;;;;;;;5.97;3.93;;;15.10;96.60;;;;;;5022190;28;20513;-56
2021/06/15 00:32:31;;;;;;;6.33;4.43;;;15.10;96.70;;;;;;5028048;28;20868;-58
2021/06/15 00:34:57;;;;;;;4.67;4.10;;;15.00;96.80;;;;;;5040561;28;20433;-58
2021/06/15 00:37:23;;;;;;;5.03;4.30;;;15.00;97.00;;;;;;5039613;28;20457;-56
2021/06/15 00:39:49;;;;;;;5.47;3.70;;;15.00;96.90;;;;;;5045252;28;20241;-56
2021/06/15 00:42:15;;;;;;;8.40;4.30;;;14.90;97.10;;;;;;5028823;28;20286;-57
2021/06/15 00:44:41;;;;;;;5.90;3.90;;;14.90;97.00;;;;;;5044994;28;20430;-56
2021/06/15 00:47:07;;;;;;;7.10;4.07;;;14.90;97.10;;;;;;5023732;28;20429;-57
2021/06/15 00:49:35;;;;;;;9.23;3.97;;;14.80;97.10;;;;;;5046265;28;20435;-57
2021/06/15 00:52:02;;;;;;;4.40;3.70;;;14.80;97.30;;;;;;5045134;28;20442;-56
2021/06/15 00:54:28;;;;;;;6.20;4.30;;;14.80;97.20;;;;;;5039473;28;20941;-58
2021/06/15 00:56:54;;;;;;;5.53;3.93;;;14.70;97.30;;;;;;5047000;28;20422;-55
2021/06/15 00:59:19;;;;;;;6.30;3.90;;;14.70;97.20;;;;;;5043879;28;20260;-57
2021/06/15 01:01:45;;;;;;;5.53;4.17;;;14.70;97.50;;;;;;5026722;28;20206;-58
2021/06/15 01:04:12;;;;;;;5.20;4.50;;;14.60;97.60;;;;;;5034872;28;20266;-58
2021/06/15 01:06:56;;;;;;;4.30;3.73;;;14.60;97.70;;;;;;5040471;28;21032;-56
2021/06/15 01:09:50;;;;;;;5.43;4.20;;;14.60;97.50;;;;;;5036912;28;20429;-56
2021/06/15 01:12:33;;;;;;;4.33;3.77;;;14.50;97.60;;;;;;5034803;28;20536;-57
2021/06/15 01:15:08;;;;;;;5.50;3.63;;;14.50;97.90;;;;;;5035146;28;20468;-57
2021/06/15 01:17:37;;;;;;;5.00;4.50;;;14.40;98.00;;;;;;5045757;28;20679;-57
2021/06/15 01:20:16;;;;;;;6.83;4.40;;;14.40;98.00;;;;;;5041233;28;20466;-54
2021/06/15 01:23:09;;;;;;;5.50;4.70;;;14.40;98.00;;;;;;5025192;28;20424;-56
2021/06/15 01:26:09;;;;;;;8.10;4.73;;;14.30;98.20;;;;;;5023957;28;21245;-56
2021/06/15 01:28:57;;;;;;;6.40;4.90;;;14.30;98.30;;;;;;5038891;28;20832;-57
2021/06/15 01:31:30;;;;;;;9.73;5.07;;;14.20;98.60;;;;;;5042282;28;20461;-57
2021/06/15 01:34:03;;;;;;;12.23;4.57;;;14.20;98.70;;;;;;5045411;28;20436;-57
2021/06/15 01:36:33;;;;;;;5.37;4.20;;;14.20;98.80;;;;;;5040303;28;20422;-57
2021/06/15 01:39:05;;;;;;;8.53;4.37;;;14.10;98.90;;;;;;5027039;28;20552;-58
2021/06/15 01:41:40;;;;;;;4.83;4.33;;;14.10;98.90;;;;;;5044590;28;20834;-55
2021/06/15 01:44:09;;;;;;;4.43;4.03;;;14.10;98.80;;;;;;5041131;28;20990;-58
2021/06/15 01:46:59;;;;;;;6.07;4.97;;;14.00;98.80;;;;;;5035939;28;20902;-56
2021/06/15 01:49:29;;;;;;;6.03;4.40;;;14.00;98.90;;;;;;5020533;28;20468;-56
2021/06/15 01:51:57;;;;;;;6.93;4.30;;;14.00;99.10;;;;;;5038828;28;20442;-56
2021/06/15 01:54:23;;;;;;;8.73;4.40;;;13.90;99.00;;;;;;5041775;28;20513;-57
2021/06/15 01:56:52;;;;;;;12.67;5.27;;;13.90;99.20;;;;;;5041767;28;20512;-57
2021/06/15 01:59:20;;;;;;;4.70;4.23;;;13.90;99.40;;;;;;5044562;28;20801;-57
2021/06/15 02:01:48;;;;;;;4.50;4.10;;;13.90;99.30;;;;;;5043281;28;20457;-56
2021/06/15 02:04:14;;;;;;;9.23;4.50;;;13.80;99.30;;;;;;5043110;28;20717;-55
2021/06/15 02:06:45;;;;;;;6.20;4.50;;;13.80;99.40;;;;;;5041545;28;21099;-58
2021/06/15 02:09:13;;;;;;;10.50;5.00;;;13.80;99.40;;;;;;5044017;28;20175;-58
2021/06/15 02:11:42;;;;;;;7.50;4.40;;;13.70;99.40;;;;;;5024042;28;21045;-57
2021/06/15 02:14:17;;;;;;;9.07;4.53;;;13.70;99.60;;;;;;5043194;28;20434;-56
2021/06/15 02:16:48;;;;;;;5.97;4.33;;;13.70;99.80;;;;;;5045718;28;20481;-56
2021/06/15 02:19:18;;;;;;;8.13;4.40;;;13.60;99.80;;;;;;5043360;28;20910;-55
2021/06/15 02:21:48;;;;;;;6.20;4.50;;;13.60;99.90;;;;;;5035176;28;20598;-55
2021/06/15 02:24:14;;;;;;;9.53;4.90;;;13.60;99.90;;;;;;5022929;28;20426;-56
2021/06/15 02:26:42;;;;;;;6.80;4.30;;;13.60;99.90;;;;;;5043683;28;20885;-56
2021/06/15 02:29:10;;;;;;;10.00;4.57;;;13.50;99.90;;;;;;5033204;28;20430;-57
2021/06/15 02:31:44;;;;;;;8.93;4.80;;;13.50;99.90;;;;;;5029629;28;20460;-57
2021/06/15 02:34:15;;;;;;;17.70;5.53;;;13.50;99.90;;;;;;5044066;28;20516;-56
2021/06/15 02:36:43;;;;;;;7.50;4.27;;;13.50;99.90;;;;;;5025438;28;20441;-57
2021/06/15 02:39:14;;;;;;;5.63;5.03;;;13.40;99.90;;;;;;5053429;28;20454;-56
2021/06/15 02:41:43;;;;;;;7.10;4.63;;;13.40;99.90;;;;;;5047281;28;20433;-56
2021/06/15 02:44:15;;;;;;;5.63;4.93;;;13.40;99.90;;;;;;5045313;28;20425;-55
2021/06/15 02:46:42;;;;;;;8.50;5.33;;;13.40;99.90;;;;;;5038744;28;20921;-55
2021/06/15 02:49:12;;;;;;;7.37;4.73;;;13.40;99.90;;;;;;5048641;28;20429;-56
2021/06/15 02:51:47;;;;;;;6.80;4.50;;;13.40;99.90;;;;;;5045877;28;20449;-55
2021/06/15 02:54:20;;;;;;;5.87;4.50;;;13.30;99.90;;;;;;5035698;28;20431;-57
2021/06/15 02:56:51;;;;;;;6.57;5.50;;;13.30;99.90;;;;;;5045504;28;20472;-57
2021/06/15 02:59:18;;;;;;;7.30;4.90;;;13.30;99.90;;;;;;5047156;28;20823;-55
2021/06/15 03:01:48;;;;;;;6.63;4.53;;;13.30;99.90;;;;;;5047757;28;20458;-54
2021/06/15 03:04:14;;;;;;;6.10;4.90;;;13.30;99.90;;;;;;5042446;28;20426;-56
2021/06/15 03:06:40;;;;;;;12.13;5.80;;;13.30;99.90;;;;;;5021175;28;21107;-55
2021/06/15 03:09:05;;;;;;;6.60;4.70;;;13.30;99.90;;;;;;5047785;28;20429;-56
2021/06/15 03:11:35;;;;;;;6.73;5.00;;;13.20;99.90;;;;;;5047206;28;20639;-56
2021/06/15 03:14:13;;;;;;;6.37;4.77;;;13.20;99.90;;;;;;5040458;28;20663;-54
2021/06/15 03:16:42;;;;;;;6.50;4.00;;;13.20;99.90;;;;;;5046664;28;20514;-55
2021/06/15 03:19:17;;;;;;;5.53;4.70;;;13.10;99.90;;;;;;5047746;28;20465;-55
2021/06/15 03:21:53;;;;;;;7.53;4.83;;;13.10;99.90;;;;;;5042797;28;20462;-57
2021/06/15 03:24:23;;;;;;;10.13;5.20;;;13.10;99.90;;;;;;5028572;28;20488;-56
2021/06/15 03:27:15;;;;;;;7.37;4.93;;;13.10;99.90;;;;;;5044634;28;20437;-56
2021/06/15 03:29:43;;;;;;;5.33;4.50;;;13.10;99.90;;;;;;5042331;28;20427;-57
2021/06/15 03:32:12;;;;;;;5.93;4.80;;;13.00;99.90;;;;;;5047360;28;20536;-57
2021/06/15 03:34:46;;;;;;;12.00;5.73;;;13.00;99.90;;;;;;5046666;28;20441;-55
2021/06/15 03:37:16;;;;;;;8.57;5.57;;;13.00;99.90;;;;;;5043561;28;20458;-56
2021/06/15 03:39:44;;;;;;;5.93;5.23;;;13.00;99.90;;;;;;5045039;28;20930;-55
2021/06/15 03:42:10;;;;;;;8.73;5.90;;;12.90;99.90;;;;;;5044761;28;20842;-56
2021/06/15 03:44:37;;;;;;;7.97;5.47;;;12.90;99.90;;;;;;5047872;28;20500;-56
2021/06/15 03:47:04;;;;;;;8.23;5.30;;;12.80;99.90;;;;;;5027228;28;20429;-55
2021/06/15 03:49:32;;;;;;;6.63;4.60;;;12.80;99.90;;;;;;5046338;28;20804;-56
2021/06/15 03:52:03;;;;;;;10.60;5.00;;;12.80;99.90;;;;;;5039632;28;20969;-56
2021/06/15 03:54:32;;;;;;;7.77;5.83;;;12.80;99.90;;;;;;5042997;28;20565;-56
2021/06/15 03:57:00;;;;;;;6.80;5.77;;;12.80;99.90;;;;;;5045546;28;20445;-56
2021/06/15 03:59:28;;;;;;;5.90;5.20;;;12.80;99.90;;;;;;5046209;28;20465;-55
2021/06/15 04:01:56;;;;;;;6.67;5.33;;;12.80;99.90;;;;;;5040244;28;20449;-56
2021/06/15 04:04:23;;;;;;;12.93;5.17;;;12.80;99.90;;;;;;5042363;28;20985;-56
2021/06/15 04:06:52;;;;;;;7.33;4.97;;;12.80;99.90;;;;;;5042231;28;20774;-56
2021/06/15 04:09:27;;;;;;;6.97;4.87;;;12.80;99.90;;;;;;5042505;28;20451;-57
2021/06/15 04:11:59;;;;;;;13.00;5.60;;;12.80;99.90;;;;;;5040722;28;20449;-55
2021/06/15 04:14:26;;;;;;;7.77;4.80;;;12.80;99.90;;;;;;5045597;28;20508;-56
2021/06/15 04:16:54;;;;;;;7.63;5.40;;;12.90;99.90;;;;;;5043211;28;20433;-57
2021/06/15 04:19:27;;;;;;;8.70;5.13;;;12.90;99.90;;;;;;5033714;28;20476;-57
2021/06/15 04:21:57;;;;;;;7.87;5.53;;;12.90;99.90;;;;;;5034377;28;20911;-55
2021/06/15 04:24:25;;;;;;;5.67;4.80;;;12.90;99.90;;;;;;5030694;28;21132;-55
2021/06/15 04:26:53;;;;;;;7.70;5.77;;;13.00;99.90;;;;;;5034435;28;20499;-55
2021/06/15 04:29:19;;;;;;;7.57;4.93;;;13.00;99.90;;;;;;5038450;28;20437;-55
2021/06/15 04:31:46;;;;;;;6.93;5.17;;;13.10;99.90;;;;;;5021673;28;20472;-55
2021/06/15 04:34:12;;;;;;;7.43;5.70;;;13.10;99.90;;;;;;5022450;28;20432;-55
2021/06/15 04:36:39;;;;;;;11.17;6.30;;;13.20;99.90;;;;;;5037492;28;20555;-54
2021/06/15 04:39:13;;;;;;;11.93;5.60;;;13.20;99.90;;;;;;5029214;28;20470;-55
2021/06/15 04:41:43;;;;;;;8.73;5.70;;;13.20;99.90;;;;;;5037659;28;20459;-54
2021/06/15 04:44:20;;;;;;;10.00;5.73;;;13.20;99.90;;;;;;5038350;28;20464;-54
2021/06/15 04:46:56;;;;;;;8.47;5.70;;;13.30;99.90;;;;;;5041170;28;20780;-54
2021/06/15 04:49:47;;;;;;;15.80;5.83;;;13.30;99.90;;;;;;5035398;28;20439;-53
2021/06/15 04:52:15;;;;;;;11.80;6.10;;;13.40;99.90;;;;;;5031673;28;20511;-53
2021/06/15 04:54:47;;;;;;;12.00;6.10;;;13.50;99.90;;;;;;5036141;28;20465;-53
2021/06/15 04:57:17;;;;;;;8.40;6.20;;;13.50;99.90;;;;;;5042583;28;20459;-54
2021/06/15 04:59:47;;;;;;;9.53;6.60;;;13.60;99.90;;;;;;5021897;28;20479;-57
2021/06/15 05:02:17;;;;;;;8.50;5.80;;;13.60;99.90;;;;;;5020136;28;20482;-57
2021/06/15 05:04:42;;;;;;;10.20;6.20;;;13.70;99.90;;;;;;5038452;28;20529;-57
2021/06/15 05:07:08;;;;;;;8.00;6.13;;;13.80;99.90;;;;;;5030007;28;20527;-54
2021/06/15 05:09:35;;;;;;;10.37;6.27;;;13.80;99.90;;;;;;5040517;28;20187;-54
2021/06/15 05:12:02;;;;;;;15.47;6.60;;;13.90;99.90;;;;;;5022299;28;20552;-54
2021/06/15 05:14:33;;;;;;;10.30;6.73;;;14.00;99.90;;;;;;5046262;28;21271;-55
2021/06/15 05:17:01;;;;;;;8.07;6.47;;;14.10;99.60;;;;;;5027228;28;20902;-54
2021/06/15 05:19:27;;;;;;;9.03;6.03;;;14.20;99.20;;;;;;5044661;28;20583;-55
2021/06/15 05:21:56;;;;;;;11.40;5.27;;;14.30;99.00;;;;;;5045706;28;20437;-54
2021/06/15 05:24:41;;;;;;;9.73;5.63;;;14.40;98.40;;;;;;5044640;28;20636;-55
2021/06/15 05:27:07;;;;;;;8.53;4.90;;;14.40;98.10;;;;;;5038287;28;20421;-55
2021/06/15 05:29:32;;;;;;;11.80;6.37;;;14.50;97.80;;;;;;5044437;28;20450;-55
2021/06/15 05:31:58;;;;;;;6.47;4.70;;;14.60;98.10;;;;;;5044348;28;21038;-53
2021/06/15 05:34:24;;;;;;;8.63;5.47;;;14.60;98.20;;;;;;5049342;28;20223;-54
2021/06/15 05:36:49;;;;;;;21.73;6.73;;;14.80;98.10;;;;;;5031402;28;20182;-52
2021/06/15 05:39:15;;;;;;;7.40;5.40;;;14.80;97.80;;;;;;5042406;28;20671;-55
2021/06/15 05:41:40;;;;;;;11.30;5.67;;;14.90;97.30;;;;;;5044412;28;20556;-54
2021/06/15 05:44:06;;;;;;;9.80;6.87;;;15.00;97.70;;;;;;5053398;28;20178;-53
2021/06/15 05:46:32;;;;;;;7.00;5.60;;;15.10;97.20;;;;;;5046330;28;20584;-57
2021/06/15 05:48:57;;;;;;;9.43;5.60;;;15.10;97.20;;;;;;5042190;28;20179;-54
2021/06/15 05:51:23;;;;;;;7.43;5.77;;;15.10;97.40;;;;;;5044449;28;20227;-55
2021/06/15 05:53:49;;;;;;;10.40;6.20;;;15.20;97.70;;;;;;5041049;28;20180;-55
2021/06/15 05:56:15;;;;;;;6.97;5.77;;;15.30;98.00;;;;;;5041836;28;20437;-55
2021/06/15 05:58:40;;;;;;;6.63;5.33;;;15.40;97.70;;;;;;5045753;28;20202;-54
2021/06/15 06:01:06;;;;;;;9.60;4.90;;;15.50;97.30;;;;;;5043959;28;20219;-55
2021/06/15 06:03:36;;;;;;;6.60;5.33;;;15.60;97.00;;;;;;5027097;28;20270;-54
2021/06/15 06:08:47;;;;;;;11.70;5.60;;;15.90;95.20;;;;;;5049607;28;20511;-55
2021/06/15 06:11:13;;;;;;;8.97;5.50;;;16.00;94.60;;;;;;5045624;28;20861;-55
2021/06/15 06:13:39;;;;;;;9.90;5.13;;;16.10;94.00;;;;;;5041208;28;20231;-56
2021/06/15 06:16:09;;;;;;;7.20;5.30;;;16.20;93.70;;;;;;5028340;28;20444;-55
2021/06/15 06:18:36;;;;;;;9.60;6.40;;;16.30;92.90;;;;;;5041660;28;20476;-56
2021/06/15 06:21:05;;;;;;;10.93;6.03;;;16.40;92.30;;;;;;5044185;28;21305;-53
2021/06/15 06:23:31;;;;;;;12.83;7.17;;;16.50;92.70;;;;;;5041773;28;20424;-54
2021/06/15 06:25:57;;;;;;;12.23;6.37;;;16.60;93.00;;;;;;5044851;28;20414;-56
2021/06/15 06:28:23;;;;;;;12.53;6.90;;;16.70;92.40;;;;;;5049098;28;20969;-54
2021/06/15 06:30:48;;;;;;;13.70;7.17;;;16.70;92.30;;;;;;5038038;28;20280;-56
2021/06/15 06:33:14;;;;;;;9.57;6.93;;;16.80;93.00;;;;;;5041263;28;20256;-56
2021/06/15 06:35:40;;;;;;;11.80;6.57;;;16.90;93.20;;;;;;5048590;28;20191;-55
2021/06/15 06:38:05;;;;;;;14.23;7.90;;;16.90;93.20;;;;;;5046210;28;20547;-56
2021/06/15 06:40:32;;;;;;;14.60;7.70;;;17.00;92.80;;;;;;5036956;28;20198;-55
2021/06/15 06:42:58;;;;;;;8.67;6.53;;;17.10;92.60;;;;;;5049247;28;20175;-55
2021/06/15 06:45:24;;;;;;;13.30;6.07;;;17.20;92.30;;;;;;5042264;28;20491;-56
2021/06/15 06:47:49;;;;;;;8.20;5.83;;;17.40;92.30;;;;;;5049302;28;20181;-55
2021/06/15 06:50:15;;;;;;;9.17;6.17;;;17.60;91.70;;;;;;5047800;28;20236;-56
2021/06/15 06:52:41;;;;;;;10.30;6.83;;;17.60;90.90;;;;;;5049224;28;20186;-56
2021/06/15 06:55:07;;;;;;;8.70;6.17;;;17.70;91.00;;;;;;5044562;28;20709;-55
2021/06/15 06:57:33;;;;;;;8.33;5.67;;;17.90;91.20;;;;;;5028116;28;20176;-55
2021/06/15 06:59:58;;;;;;;6.70;5.40;;;18.00;90.60;;;;;;5047439;28;20467;-53
2021/06/15 07:02:24;;;;;;;8.77;5.37;;;18.20;88.50;;;;;;5043083;28;20176;-56
2021/06/15 07:04:50;;;;;;;9.43;6.67;;;18.40;88.20;;;;;;5044116;28;20179;-55
2021/06/15 07:07:16;;;;;;;11.30;5.70;;;18.60;88.10;;;;;;5032731;28;20175;-55
2021/06/15 07:09:41;;;;;;;10.07;6.07;;;18.80;88.00;;;;;;5045681;28;20235;-55
2021/06/15 07:12:07;;;;;;;12.13;8.33;;;19.00;88.50;;;;;;5051783;28;20202;-56
2021/06/15 07:14:33;;;;;;;10.20;5.77;;;19.10;88.00;;;;;;5046028;28;20647;-56
2021/06/15 07:16:58;;;;;;;8.13;5.30;;;19.30;84.60;;;;;;5042014;28;20229;-56
2021/06/15 07:19:24;;;;;;;9.53;5.30;;;19.40;83.40;;;;;;5047191;28;20241;-54
2021/06/15 07:21:50;;;;;;;11.53;5.10;;;19.60;84.40;;;;;;5041872;28;20187;-55
2021/06/15 07:24:15;;;;;;;7.73;5.20;;;19.80;82.10;;;;;;5040706;28;20164;-55
2021/06/15 07:26:42;;;;;;;12.93;4.83;;;19.90;82.30;;;;;;5047721;28;20501;-55
2021/06/15 07:29:08;;;;;;;12.10;5.37;;;20.10;78.30;;;;;;5047994;28;20675;-56
2021/06/15 07:31:34;;;;;;;6.17;4.87;;;20.20;72.40;;;;;;5028288;28;20461;-55
2021/06/15 07:34:00;;;;;;;11.43;5.20;;;20.20;69.70;;;;;;5043490;28;20184;-55
2021/06/15 07:36:26;;;;;;;6.07;4.07;;;20.40;68.10;;;;;;5043737;28;20438;-56
2021/06/15 07:38:52;;;;;;;7.80;4.40;;;20.50;68.00;;;;;;5051886;28;20285;-56
2021/06/15 07:41:18;;;;;;;6.23;4.40;;;20.60;67.30;;;;;;5044358;28;20191;-55
2021/06/15 07:43:44;;;;;;;4.37;3.50;;;20.70;63.10;;;;;;5046598;28;20432;-55
2021/06/15 07:46:09;;;;;;;6.73;3.90;;;20.80;59.40;;;;;;5049075;28;20163;-55
2021/06/15 07:48:35;;;;;;;5.90;3.20;;;20.90;59.20;;;;;;5051009;28;20255;-54
2021/06/15 07:51:01;;;;;;;21.17;3.93;;;21.10;58.50;;;;;;5045698;28;20199;-56
2021/06/15 07:53:26;;;;;;;4.73;3.40;;;21.20;57.80;;;;;;5037739;28;20601;-56
2021/06/15 07:55:52;;;;;;;8.10;3.40;;;21.30;59.00;;;;;;5031431;28;20257;-55
2021/06/15 07:58:17;;;;;;;3.90;3.40;;;21.40;60.50;;;;;;5045851;28;20199;-55
2021/06/15 08:00:43;;;;;;;5.77;3.50;;;21.60;61.70;;;;;;5046613;28;20202;-55
2021/06/15 08:03:09;;;;;;;6.00;3.40;;;21.80;61.90;;;;;;5045159;28;20764;-55
2021/06/15 08:05:34;;;;;;;5.70;3.60;;;21.90;56.90;;;;;;5049477;28;20171;-57
2021/06/15 08:08:01;;;;;;;6.17;3.13;;;21.90;56.20;;;;;;5045560;28;20167;-58
2021/06/15 08:10:27;;;;;;;5.40;3.57;;;21.90;55.70;;;;;;5043900;28;20229;-56
2021/06/15 08:12:53;;;;;;;6.27;3.50;;;21.90;56.00;;;;;;5046209;28;20461;-56
2021/06/15 08:15:19;;;;;;;5.47;3.20;;;22.00;56.50;;;;;;5036008;28;20182;-55
2021/06/15 08:17:45;;;;;;;6.90;3.37;;;22.10;57.00;;;;;;5043482;28;20539;-57
2021/06/15 08:20:12;;;;;;;10.30;3.60;;;22.30;57.30;;;;;;5047471;28;20274;-56
2021/06/15 08:22:38;;;;;;;10.83;3.37;;;22.40;55.50;;;;;;5050655;28;20418;-56
2021/06/15 08:25:05;;;;;;;9.00;3.40;;;22.50;54.10;;;;;;5045133;28;20410;-56
2021/06/15 08:27:34;;;;;;;4.80;3.97;;;22.60;53.70;;;;;;5028322;28;20433;-56
2021/06/15 08:30:00;;;;;;;9.60;4.10;;;22.70;56.20;;;;;;5041839;28;20428;-56
2021/06/15 08:32:26;;;;;;;9.13;3.30;;;22.90;56.50;;;;;;5044034;28;20441;-56
2021/06/15 08:34:52;;;;;;;3.10;2.90;;;23.00;56.10;;;;;;5039104;28;20480;-56
2021/06/15 08:37:17;;;;;;;4.00;2.87;;;23.20;55.50;;;;;;5028913;28;20179;-56
2021/06/15 08:39:43;;;;;;;4.43;3.10;;;23.30;54.10;;;;;;5039827;28;20281;-56
2021/06/15 08:42:09;;;;;;;6.53;3.37;;;23.50;53.30;;;;;;5049258;28;20256;-56
2021/06/15 08:44:35;;;;;;;6.70;2.97;;;23.70;52.80;;;;;;5041992;28;20247;-55
2021/06/15 08:47:01;;;;;;;8.90;3.30;;;23.80;52.10;;;;;;5047993;28;20199;-54
2021/06/15 08:49:27;;;;;;;5.17;3.10;;;24.00;51.00;;;;;;5039001;28;20438;-55
2021/06/15 08:51:54;;;;;;;2.87;2.57;;;24.10;49.60;;;;;;5036640;28;20199;-55
2021/06/15 08:54:20;;;;;;;6.93;2.60;;;24.30;49.60;;;;;;5042989;28;20651;-55
2021/06/15 08:56:47;;;;;;;4.10;3.30;;;24.40;50.10;;;;;;5044379;28;20825;-54
2021/06/15 08:59:21;;;;;;;6.90;2.93;;;24.40;50.00;;;;;;5045484;28;20484;-55
2021/06/15 09:01:52;;;;;;;5.07;2.80;;;24.60;50.30;;;;;;5044657;28;20440;-56
2021/06/15 09:04:18;;;;;;;5.80;3.00;;;24.70;49.60;;;;;;5044654;28;20536;-56
2021/06/15 09:06:46;;;;;;;2.80;2.57;;;24.90;48.80;;;;;;5040127;28;20550;-56
2021/06/15 09:09:12;;;;;;;3.77;2.50;;;25.00;48.60;;;;;;5046704;28;20921;-57
2021/06/15 09:11:48;;;;;;;6.27;3.07;;;25.00;48.40;;;;;;5026960;28;20445;-57
2021/06/15 09:14:14;;;;;;;4.43;2.90;;;25.10;47.50;;;;;;5043751;28;20421;-56
2021/06/15 09:16:47;;;;;;;4.90;3.10;;;25.10;47.30;;;;;;5037421;28;20645;-57
2021/06/15 09:19:18;;;;;;;4.63;2.67;;;25.20;46.80;;;;;;5038041;28;20552;-56
2021/06/15 09:21:48;;;;;;;7.00;2.80;;;25.30;46.60;;;;;;5044919;28;20461;-56
2021/06/15 09:24:23;;;;;;;3.10;2.80;;;25.40;45.80;;;;;;5043895;28;20962;-57
2021/06/15 09:29:45;;;;;;;4.90;2.40;;;25.60;46.10;;;;;;5040096;28;20819;-58
2021/06/15 09:32:16;;;;;;;4.60;2.53;;;25.70;46.30;;;;;;5043570;22;21836;-61
2021/06/15 09:34:48;;;;;;;2.97;2.70;;;25.80;46.50;;;;;;5022968;28;20441;-60
2021/06/15 09:37:15;;;;;;;5.23;2.80;;;25.90;46.10;;;;;;5012061;28;20461;-62
2021/06/15 09:39:41;;;;;;;6.10;2.63;;;26.10;45.90;;;;;;5026718;28;20450;-61
2021/06/15 09:42:12;;;;;;;4.97;2.30;;;26.10;46.00;;;;;;5007737;28;21065;-62
2021/06/15 09:44:39;;;;;;;2.67;2.40;;;26.20;46.10;;;;;;4992928;28;20890;-61
2021/06/15 09:47:07;;;;;;;3.83;2.33;;;26.30;45.00;;;;;;5025956;28;20488;-63
2021/06/15 09:49:36;;;;;;;4.70;2.30;;;26.40;44.90;;;;;;5025669;28;20489;-60
2021/06/15 09:52:26;;;;;;;3.30;2.70;;;26.50;44.00;;;;;;5023989;28;20457;-60
2021/06/15 09:54:53;;;;;;;2.40;2.20;;;26.70;44.40;;;;;;5021164;28;20525;-63
2021/06/15 09:57:27;;;;;;;4.37;2.70;;;26.70;44.10;;;;;;5026292;28;20943;-61
2021/06/15 10:00:10;;;;;;;6.03;3.17;;;26.80;43.60;;;;;;5020858;28;20521;-62
2021/06/15 10:02:48;;;;;;;5.73;2.60;;;27.00;43.70;;;;;;5025153;28;20568;-61
2021/06/15 10:05:31;;;;;;;5.13;2.77;;;27.00;43.70;;;;;;5027994;28;20822;-63
2021/06/15 10:08:08;;;;;;;5.13;2.60;;;27.20;44.80;;;;;;5023998;28;20487;-63
2021/06/15 10:10:44;;;;;;;5.53;4.37;;;27.30;46.00;;;;;;5025079;28;20429;-63
2021/06/15 10:13:11;;;;;;;3.50;2.83;;;27.50;46.90;;;;;;5022292;28;20798;-63
2021/06/15 10:15:38;;;;;;;9.13;2.63;;;27.60;46.60;;;;;;5018758;28;20476;-63
2021/06/15 10:18:06;;;;;;;5.10;2.97;;;27.60;45.60;;;;;;5019546;28;20552;-61
2021/06/15 10:20:33;;;;;;;6.80;3.00;;;27.70;44.30;;;;;;5025989;28;20418;-62
2021/06/15 10:23:00;;;;;;;4.97;2.77;;;27.80;43.60;;;;;;5026581;28;20446;-61
2021/06/15 10:25:28;;;;;;;7.37;3.20;;;27.90;45.10;;;;;;5024855;28;20906;-63
2021/06/15 10:27:55;;;;;;;3.33;2.93;;;28.00;44.70;;;;;;5028667;28;20460;-62
2021/06/15 10:30:42;;;;;;;5.77;2.83;;;28.10;44.30;;;;;;5031093;28;21098;-64
2021/06/15 10:33:25;;;;;;;3.53;2.73;;;28.20;45.00;;;;;;5017574;28;20508;-64
2021/06/15 10:35:54;;;;;;;3.53;2.30;;;28.20;42.90;;;;;;5024865;28;20224;-60
2021/06/15 10:38:29;;;;;;;3.23;2.70;;;28.30;41.50;;;;;;5023470;28;20463;-61
2021/06/15 10:40:56;;;;;;;4.90;2.70;;;28.30;40.80;;;;;;5020849;28;20425;-61
2021/06/15 10:43:28;;;;;;;3.87;2.43;;;28.20;41.10;;;;;;5005340;28;20519;-62
2021/06/15 10:46:06;;;;;;;6.93;3.00;;;28.30;41.40;;;;;;5018276;28;20199;-63
2021/06/15 10:48:40;;;;;;;3.60;2.40;;;28.40;43.30;;;;;;5024579;28;20838;-62
2021/06/15 10:51:31;;;;;;;5.23;2.73;;;28.70;44.20;;;;;;5024050;28;20224;-63
2021/06/15 10:54:04;;;;;;;3.83;2.67;;;28.90;42.30;;;;;;5027603;28;20257;-62
2021/06/15 10:56:33;;;;;;;5.73;2.53;;;29.10;41.80;;;;;;5009400;28;20176;-62
2021/06/15 10:59:04;;;;;;;4.40;2.63;;;29.40;41.00;;;;;;5029781;28;20206;-59
2021/06/15 11:01:32;;;;;;;3.70;2.60;;;29.50;40.30;;;;;;5025134;28;20200;-59
2021/06/15 11:04:10;;;;;;;3.93;2.90;;;29.60;40.30;;;;;;5026094;28;20213;-58
2021/06/15 11:06:38;;;;;;;2.70;2.20;;;29.70;40.40;;;;;;5027311;28;20179;-58
2021/06/15 11:09:13;;;;;;;4.77;2.80;;;29.70;39.10;;;;;;5022505;28;20176;-60
2021/06/15 11:11:39;;;;;;;3.83;2.70;;;29.70;39.50;;;;;;5028480;28;20750;-60
2021/06/15 11:14:15;;;;;;;5.97;2.47;;;29.80;39.60;;;;;;5029523;28;20274;-59
2021/06/15 11:16:48;;;;;;;3.60;2.70;;;29.80;41.20;;;;;;5022871;28;20659;-59
2021/06/15 11:19:14;;;;;;;4.38;2.63;;;29.90;42.00;;;;;;5029146;28;20207;-61
2021/06/15 11:21:52;;;;;;;4.70;2.40;;;30.00;42.60;;;;;;5029571;28;20203;-61
2021/06/15 11:24:25;;;;;;;4.13;3.00;;;30.10;41.20;;;;;;5018879;28;20166;-63
2021/06/15 11:27:19;;;;;;;4.50;2.75;;;30.10;40.40;;;;;;5025224;28;20182;-63
2021/06/15 11:29:50;;;;;;;3.50;2.80;;;30.20;41.50;;;;;;5027213;28;20437;-62
2021/06/15 11:32:17;;;;;;;4.18;2.78;;;29.90;40.10;;;;;;5023105;28;20585;-62
2021/06/15 11:35:03;;;;;;;5.22;2.35;;;29.60;41.00;;;;;;5027658;28;20188;-62
2021/06/15 11:37:38;;;;;;;3.73;2.70;;;29.60;41.90;;;;;;5027155;28;20721;-63
2021/06/15 11:40:34;;;;;;;4.38;3.03;;;29.80;41.20;;;;;;5026425;28;20175;-62
2021/06/15 11:43:09;;;;;;;4.25;2.80;;;30.00;41.40;;;;;;5021632;28;20210;-62
2021/06/15 11:45:38;;;;;;;3.58;2.67;;;30.30;41.30;;;;;;5016575;28;20259;-61
2021/06/15 11:48:37;;;;;;;5.57;2.55;;;30.40;39.90;;;;;;5016515;28;20666;-60
2021/06/15 11:51:07;;;;;;;3.40;3.10;;;30.10;41.70;;;;;;4986895;28;20194;-60
2021/06/15 11:53:39;;;;;;;6.85;3.42;;;29.90;42.50;;;;;;5024210;28;20268;-62
2021/06/15 11:56:07;;;;;;;6.30;3.10;;;29.80;41.80;;;;;;5022450;28;20179;-61
2021/06/15 11:58:47;;;;;;;4.57;3.00;;;29.60;42.40;;;;;;5022114;28;20261;-61
2021/06/15 12:01:14;;;;;;;5.87;2.70;;;29.40;42.30;;;;;;5021267;28;20202;-61
2021/06/15 12:03:45;;;;;;;3.37;3.07;;;29.30;41.90;;;;;;5017811;28;20172;-61
2021/06/15 12:06:12;;;;;;;6.37;4.40;;;28.90;42.20;;;;;;5020230;28;20198;-62
2021/06/15 12:08:41;;;;;;;3.77;3.23;;;28.70;43.20;;;;;;5021693;28;20183;-63
2021/06/15 12:11:12;;;;;;;8.87;3.47;;;28.70;43.40;;;;;;5021793;28;20203;-62
2021/06/15 12:13:39;;;;;;;5.53;3.07;;;28.60;42.00;;;;;;5006029;28;20280;-61
2021/06/15 12:16:11;;;;;;;6.50;2.93;;;28.40;41.50;;;;;;5019267;28;20179;-60
2021/06/15 12:18:47;;;;;;;3.50;3.10;;;28.10;41.30;;;;;;5019510;28;20198;-61
2021/06/15 12:21:21;;;;;;;4.50;2.90;;;28.00;42.60;;;;;;5019774;28;20840;-59
2021/06/15 12:23:55;;;;;;;4.83;3.33;;;28.20;43.70;;;;;;5023369;28;20171;-59
2021/06/15 12:26:32;;;;;;;4.90;2.90;;;28.80;44.90;;;;;;5005296;28;20179;-59
2021/06/15 12:29:01;;;;;;;4.90;3.20;;;29.10;43.20;;;;;;5000245;28;20274;-59
2021/06/15 12:31:28;;;;;;;5.60;3.40;;;29.10;43.90;;;;;;5018840;28;20221;-59
2021/06/15 12:34:00;;;;;;;4.10;2.33;;;29.00;43.80;;;;;;5020637;28;20175;-59
2021/06/15 12:36:28;;;;;;;4.20;2.70;;;29.00;45.00;;;;;;5019564;28;20238;-59
2021/06/15 12:39:06;;;;;;;4.90;3.00;;;29.30;44.40;;;;;;5016766;28;20203;-59
2021/06/15 12:41:32;;;;;;;3.57;3.10;;;29.30;44.50;;;;;;5020776;28;20206;-60
2021/06/15 12:44:01;;;;;;;13.50;3.97;;;29.40;42.40;;;;;;5018562;28;20175;-61
2021/06/15 12:46:32;;;;;;;8.43;2.70;;;29.30;39.80;;;;;;5019035;28;20600;-60
2021/06/15 12:49:21;;;;;;;3.07;2.77;;;29.10;40.80;;;;;;5022097;28;20190;-60
2021/06/15 12:51:51;;;;;;;10.23;3.00;;;29.30;41.80;;;;;;5020007;28;20557;-60
2021/06/15 12:54:22;;;;;;;4.90;2.87;;;29.70;40.60;;;;;;5022461;28;20186;-60
2021/06/15 12:57:04;;;;;;;3.95;3.08;;;30.10;40.70;;;;;;5019441;28;20194;-60
2021/06/15 12:59:34;;;;;;;4.07;2.85;;;30.70;41.00;;;;;;4993241;28;20207;-59
2021/06/15 13:02:14;;;;;;;3.75;3.25;;;31.20;39.60;;;;;;5017621;28;20191;-59
2021/06/15 13:04:47;;;;;;;3.90;2.95;;;31.60;36.70;;;;;;5024523;28;20177;-60